Time;durP1;ratioP1;P1;durP2;ratioP2;P2;SDS_P1;SDS_P2;PMS_P1;PMS_P2;Temp;Humidity;BMP_temperature;BMP_pressure;BME280_temperature;BME280_humidity;BME280_pressure;Samples;Min_cycle;Max_cycle;Signal;HPM_P1;HPM_P2
2021/04/22 04:00:43;;;;;;;12.20;2.40;;;-0.30;96.30;;;;;;5747481;23;20490;-73
2021/04/22 04:03:09;;;;;;;7.53;2.10;;;-0.30;96.30;;;;;;4923323;29;20475;-73
2021/04/22 04:05:35;;;;;;;9.20;2.00;;;-0.10;96.30;;;;;;4916256;29;20636;-74
2021/04/22 04:08:00;;;;;;;12.70;2.20;;;0.10;96.30;;;;;;4918025;29;20187;-73
2021/04/22 04:10:26;;;;;;;12.97;2.50;;;0.10;96.30;;;;;;4918397;29;20172;-74
2021/04/22 04:12:51;;;;;;;13.03;2.43;;;0.10;96.30;;;;;;4918336;29;20192;-74
2021/04/22 04:15:17;;;;;;;28.37;2.43;;;0.20;96.30;;;;;;4917603;29;20200;-74
2021/04/22 04:17:42;;;;;;;9.83;2.90;;;0.20;96.30;;;;;;4917935;29;20216;-74
2021/04/22 04:20:10;;;;;;;22.60;3.53;;;0.30;96.30;;;;;;4916514;29;20532;-74
2021/04/22 04:22:36;;;;;;;9.40;2.60;;;0.30;96.30;;;;;;4917277;29;20204;-74
2021/04/22 04:25:03;;;;;;;22.53;2.97;;;0.30;96.30;;;;;;4918339;29;20475;-74
2021/04/22 04:27:28;;;;;;;13.40;2.93;;;0.30;96.30;;;;;;4917652;29;20172;-74
2021/04/22 04:29:54;;;;;;;12.50;2.60;;;0.40;96.30;;;;;;4916770;29;20468;-74
2021/04/22 04:32:19;;;;;;;20.17;3.67;;;0.50;96.30;;;;;;4918178;29;20211;-74
2021/04/22 04:34:45;;;;;;;10.03;2.50;;;0.50;96.30;;;;;;4918229;29;20641;-74
2021/04/22 04:37:10;;;;;;;6.33;2.67;;;0.60;96.30;;;;;;4916160;29;20184;-74
2021/04/22 04:39:36;;;;;;;13.13;3.00;;;0.60;96.30;;;;;;4919498;29;20176;-74
2021/04/22 04:42:01;;;;;;;9.23;2.73;;;0.60;96.30;;;;;;4922403;29;20200;-74
2021/04/22 04:44:27;;;;;;;9.30;3.07;;;0.50;96.30;;;;;;4917941;29;20175;-73
2021/04/22 04:46:53;;;;;;;12.17;3.23;;;0.50;96.30;;;;;;4917296;29;20176;-75
2021/04/22 04:49:18;;;;;;;5.20;2.30;;;0.70;96.30;;;;;;4916335;29;20168;-74
2021/04/22 04:51:44;;;;;;;14.23;2.37;;;0.80;96.30;;;;;;4915261;29;20723;-74
2021/04/22 04:54:09;;;;;;;15.60;3.60;;;0.90;96.30;;;;;;4917378;29;20184;-74
2021/04/22 04:56:35;;;;;;;7.03;2.47;;;1.10;96.30;;;;;;4916106;29;20188;-73
2021/04/22 04:59:00;;;;;;;13.10;2.50;;;1.20;96.30;;;;;;4916592;29;20180;-74
2021/04/22 05:01:26;;;;;;;10.30;2.93;;;1.30;96.30;;;;;;4917832;29;20735;-73
2021/04/22 05:03:52;;;;;;;9.67;2.50;;;1.40;96.30;;;;;;4918199;29;20534;-73
2021/04/22 05:06:17;;;;;;;16.77;2.43;;;1.50;96.30;;;;;;4918116;29;20172;-73
2021/04/22 05:08:43;;;;;;;15.80;3.47;;;1.70;96.30;;;;;;4917706;29;20187;-73
2021/04/22 05:11:08;;;;;;;20.20;2.93;;;1.90;96.30;;;;;;4928347;29;20199;-74
2021/04/22 05:13:34;;;;;;;10.07;2.70;;;2.00;96.30;;;;;;4936587;29;20184;-74
2021/04/22 05:15:59;;;;;;;10.67;2.80;;;2.10;96.30;;;;;;4935757;29;20664;-74
2021/04/22 05:18:26;;;;;;;14.00;3.33;;;2.40;96.30;;;;;;4936076;29;20175;-74
2021/04/22 05:20:51;;;;;;;12.50;3.73;;;2.60;96.30;;;;;;4936958;29;20690;-73
2021/04/22 05:23:18;;;;;;;16.40;3.33;;;2.80;96.30;;;;;;4935722;29;20458;-74
2021/04/22 05:25:44;;;;;;;12.40;2.97;;;2.80;96.30;;;;;;4936408;29;20168;-74
2021/04/22 05:28:09;;;;;;;20.90;3.10;;;2.90;96.30;;;;;;4934951;29;20419;-74
2021/04/22 05:30:35;;;;;;;17.80;2.80;;;2.90;96.30;;;;;;4936309;29;20319;-74
2021/04/22 05:33:00;;;;;;;20.63;4.17;;;3.00;96.30;;;;;;4936039;29;20640;-74
2021/04/22 05:35:26;;;;;;;12.80;2.77;;;2.90;96.30;;;;;;4936124;29;20183;-74
2021/04/22 05:37:51;;;;;;;12.57;3.77;;;3.00;96.30;;;;;;4934087;29;20188;-74
2021/04/22 05:40:19;;;;;;;19.00;3.30;;;2.90;96.30;;;;;;4933272;29;20180;-74
2021/04/22 05:42:44;;;;;;;9.60;2.97;;;2.90;96.30;;;;;;4935781;29;20235;-73
2021/04/22 05:45:10;;;;;;;9.40;2.67;;;2.90;96.30;;;;;;4941794;29;20517;-73
2021/04/22 05:47:36;;;;;;;17.33;4.40;;;2.90;96.30;;;;;;4964282;28;20175;-74
2021/04/22 05:50:01;;;;;;;12.33;3.00;;;3.00;96.30;;;;;;4934546;29;20427;-74
2021/04/22 05:52:27;;;;;;;19.17;4.53;;;3.10;96.30;;;;;;4913952;29;20200;-74
2021/04/22 05:54:53;;;;;;;15.67;3.07;;;2.90;96.30;;;;;;4928290;29;20583;-73
2021/04/22 05:57:18;;;;;;;15.00;2.53;;;2.90;96.30;;;;;;4932630;29;20172;-73
2021/04/22 05:59:44;;;;;;;21.20;4.53;;;3.30;96.30;;;;;;4935572;29;20203;-74
2021/04/22 06:02:09;;;;;;;22.60;4.13;;;3.50;96.30;;;;;;4934555;29;20211;-74
2021/04/22 06:04:34;;;;;;;14.53;3.40;;;3.70;96.30;;;;;;4936378;29;20608;-74
2021/04/22 06:07:00;;;;;;;14.77;2.57;;;3.70;96.30;;;;;;4944162;29;20192;-74
2021/04/22 06:09:26;;;;;;;11.23;2.70;;;3.70;96.30;;;;;;4934422;29;20203;-73
2021/04/22 06:11:52;;;;;;;10.80;3.07;;;3.80;96.30;;;;;;4937745;29;20212;-73
2021/04/22 06:14:17;;;;;;;9.67;2.93;;;3.90;96.30;;;;;;4935685;29;20206;-73
2021/04/22 06:16:43;;;;;;;12.97;3.23;;;3.80;96.30;;;;;;4934676;29;20207;-73
2021/04/22 06:19:08;;;;;;;13.07;3.27;;;3.90;96.30;;;;;;4935167;29;20176;-74
2021/04/22 06:21:34;;;;;;;14.90;3.60;;;4.00;96.30;;;;;;4934174;29;20243;-74
2021/04/22 06:23:59;;;;;;;7.80;3.13;;;3.90;96.30;;;;;;4934921;29;20255;-73
2021/04/22 06:26:25;;;;;;;16.50;2.77;;;3.90;96.30;;;;;;4934250;29;20178;-73
2021/04/22 06:28:51;;;;;;;9.60;2.57;;;3.80;96.30;;;;;;4934075;29;20605;-73
2021/04/22 06:31:17;;;;;;;10.77;2.83;;;3.80;96.30;;;;;;4932609;29;20731;-73
2021/04/22 06:33:42;;;;;;;13.00;2.73;;;3.80;96.30;;;;;;4926051;29;20187;-73
2021/04/22 06:36:08;;;;;;;18.83;3.23;;;3.80;96.30;;;;;;4935331;29;20981;-73
2021/04/22 06:38:34;;;;;;;11.23;2.50;;;3.70;96.30;;;;;;4934788;29;20267;-73
2021/04/22 06:40:59;;;;;;;9.70;2.33;;;3.80;96.30;;;;;;4935409;29;20287;-73
2021/04/22 06:43:25;;;;;;;15.43;3.37;;;4.00;96.30;;;;;;4935081;29;20934;-73
2021/04/22 06:45:51;;;;;;;18.27;2.30;;;4.20;96.30;;;;;;4935174;29;20180;-74
2021/04/22 06:48:17;;;;;;;15.57;2.13;;;4.60;96.30;;;;;;4935032;29;20923;-73
2021/04/22 06:50:45;;;;;;;13.03;3.03;;;4.90;96.30;;;;;;4934472;29;20615;-73
2021/04/22 06:53:11;;;;;;;9.43;2.50;;;4.80;96.30;;;;;;4946993;29;20179;-74
2021/04/22 06:55:36;;;;;;;12.90;2.70;;;4.40;96.30;;;;;;4941054;28;20423;-73
2021/04/22 06:58:04;;;;;;;10.40;2.20;;;4.50;96.30;;;;;;4934296;29;20886;-73
2021/04/22 07:00:34;;;;;;;20.20;3.00;;;4.10;96.30;;;;;;4934846;29;20204;-74
2021/04/22 07:03:00;;;;;;;19.30;3.47;;;4.40;96.30;;;;;;4935992;29;20499;-73
2021/04/22 07:05:26;;;;;;;25.03;2.83;;;4.40;96.30;;;;;;4937944;29;20455;-73
2021/04/22 07:07:51;;;;;;;11.30;2.33;;;5.10;96.10;;;;;;4936041;29;20178;-73
2021/04/22 07:10:18;;;;;;;18.43;2.30;;;5.60;93.70;;;;;;4934795;29;20267;-73
2021/04/22 07:12:44;;;;;;;13.10;2.63;;;5.40;94.90;;;;;;4924130;29;20260;-73
2021/04/22 07:15:11;;;;;;;15.40;3.73;;;5.70;95.50;;;;;;4934018;29;20427;-73
2021/04/22 07:17:37;;;;;;;10.13;2.37;;;5.70;93.80;;;;;;4921336;29;20438;-73
2021/04/22 07:20:10;;;;;;;8.87;2.47;;;5.20;94.20;;;;;;4935469;29;20888;-73
2021/04/22 07:22:36;;;;;;;25.93;3.20;;;4.70;96.00;;;;;;4935918;29;20473;-74
2021/04/22 07:25:02;;;;;;;11.33;2.47;;;4.40;96.30;;;;;;4935842;29;20420;-73
2021/04/22 07:27:28;;;;;;;6.67;2.17;;;4.60;96.30;;;;;;4930710;29;20182;-73
2021/04/22 07:29:53;;;;;;;14.93;2.40;;;4.40;96.30;;;;;;4934846;29;20506;-73
2021/04/22 07:32:20;;;;;;;4.20;1.40;;;4.20;96.30;;;;;;4935157;29;20290;-74
2021/04/22 07:34:47;;;;;;;12.67;2.40;;;4.10;96.30;;;;;;4933758;29;20206;-73
2021/04/22 07:37:17;;;;;;;13.33;2.20;;;4.10;96.30;;;;;;4933820;29;20418;-73
2021/04/22 07:39:44;;;;;;;11.37;2.33;;;4.00;96.30;;;;;;4933341;29;20423;-73
2021/04/22 07:42:10;;;;;;;10.57;2.57;;;3.90;96.30;;;;;;4933681;29;20475;-73
2021/04/22 07:44:35;;;;;;;8.83;2.30;;;3.90;96.30;;;;;;4933933;29;20442;-73
2021/04/22 07:47:02;;;;;;;7.63;2.40;;;3.80;96.30;;;;;;4930622;29;20559;-74
2021/04/22 07:49:28;;;;;;;12.30;3.00;;;3.90;96.30;;;;;;4934411;29;20183;-74
2021/04/22 07:51:53;;;;;;;7.43;2.17;;;4.00;96.30;;;;;;4935913;29;20438;-74
2021/04/22 07:54:19;;;;;;;11.30;1.90;;;4.20;96.30;;;;;;4937590;29;20194;-73
2021/04/22 07:56:45;;;;;;;5.73;1.70;;;4.30;96.30;;;;;;4934633;29;20506;-73
2021/04/22 07:59:10;;;;;;;10.63;1.23;;;4.10;96.30;;;;;;4937505;29;20184;-73
2021/04/22 08:01:36;;;;;;;10.77;4.13;;;3.90;96.30;;;;;;4937613;29;20646;-73
2021/04/22 08:04:01;;;;;;;7.63;2.00;;;3.80;96.30;;;;;;4937134;29;20247;-73
2021/04/22 08:06:27;;;;;;;16.80;2.40;;;3.80;96.30;;;;;;4937472;29;20199;-73
2021/04/22 08:08:53;;;;;;;7.50;1.67;;;4.10;96.30;;;;;;4938569;29;20254;-73
2021/04/22 08:11:18;;;;;;;14.87;3.30;;;4.30;96.30;;;;;;4939187;29;20258;-73
2021/04/22 08:13:44;;;;;;;9.20;2.00;;;4.50;96.30;;;;;;4938867;29;20190;-73
2021/04/22 08:16:09;;;;;;;12.47;2.03;;;4.60;96.30;;;;;;4938337;29;20183;-73
2021/04/22 08:18:35;;;;;;;8.73;2.27;;;4.80;96.30;;;;;;4941607;29;20518;-73
2021/04/22 08:21:00;;;;;;;8.13;2.77;;;5.00;96.30;;;;;;4956220;28;20198;-73
2021/04/22 08:23:31;;;;;;;11.17;2.67;;;4.90;95.20;;;;;;4938541;29;20231;-73
2021/04/22 08:25:59;;;;;;;6.93;1.50;;;4.80;96.30;;;;;;4937909;29;20175;-73
2021/04/22 08:28:26;;;;;;;5.03;2.33;;;5.00;95.60;;;;;;4938314;29;20491;-74
2021/04/22 08:31:02;;;;;;;6.77;1.80;;;5.10;95.30;;;;;;4937641;29;21234;-74
2021/04/22 08:33:30;;;;;;;6.70;2.20;;;5.00;94.00;;;;;;4938610;29;20411;-74
2021/04/22 08:35:56;;;;;;;10.70;3.07;;;4.90;94.70;;;;;;4937503;29;20562;-74
2021/04/22 08:38:22;;;;;;;11.47;1.80;;;4.90;96.30;;;;;;4938198;29;20470;-73
2021/04/22 08:40:49;;;;;;;9.40;2.50;;;5.10;93.40;;;;;;4938283;29;20195;-73
2021/04/22 08:43:15;;;;;;;8.53;2.00;;;4.90;96.30;;;;;;4938206;29;21038;-73
2021/04/22 08:45:42;;;;;;;12.83;2.53;;;5.10;96.30;;;;;;4938225;29;20432;-74
2021/04/22 08:48:08;;;;;;;9.13;2.40;;;5.40;96.20;;;;;;4937557;29;20789;-73
2021/04/22 08:50:35;;;;;;;11.53;3.20;;;5.60;95.10;;;;;;4937949;29;20447;-73
2021/04/22 08:53:04;;;;;;;4.57;1.77;;;5.30;94.20;;;;;;4938415;29;20404;-74
2021/04/22 08:55:32;;;;;;;8.80;2.60;;;5.30;93.60;;;;;;4937949;29;20956;-73
2021/04/22 08:57:59;;;;;;;15.53;3.53;;;5.30;95.40;;;;;;4937288;29;20439;-73
2021/04/22 09:00:29;;;;;;;10.67;2.50;;;5.20;96.20;;;;;;4947639;29;20472;-73
2021/04/22 09:02:55;;;;;;;15.10;3.20;;;5.50;96.30;;;;;;4935659;29;20975;-73
2021/04/22 09:05:21;;;;;;;9.30;2.83;;;6.00;95.10;;;;;;4935457;29;20430;-74
2021/04/22 09:07:47;;;;;;;10.43;2.50;;;6.00;94.00;;;;;;4936620;29;20175;-74
2021/04/22 09:10:15;;;;;;;9.60;3.03;;;6.30;94.30;;;;;;4936798;29;20852;-74
2021/04/22 09:12:41;;;;;;;13.37;2.63;;;6.20;93.60;;;;;;4933990;29;20179;-74
2021/04/22 09:15:12;;;;;;;6.40;2.20;;;6.10;91.80;;;;;;4936066;29;20995;-74
2021/04/22 09:17:39;;;;;;;9.37;2.17;;;5.50;92.80;;;;;;4936458;29;20677;-74
2021/04/22 09:20:08;;;;;;;15.47;2.80;;;5.50;93.60;;;;;;4935865;29;20419;-74
2021/04/22 09:22:39;;;;;;;10.53;2.37;;;5.70;96.00;;;;;;4937742;29;20467;-74
2021/04/22 09:25:20;;;;;;;14.50;2.73;;;6.00;92.20;;;;;;4937586;29;20523;-73
2021/04/22 09:27:47;;;;;;;9.27;2.70;;;6.10;92.60;;;;;;4932322;29;20429;-73
2021/04/22 09:30:15;;;;;;;3.60;2.17;;;6.80;93.00;;;;;;4937289;29;20419;-73
2021/04/22 09:32:40;;;;;;;11.53;3.03;;;6.70;89.40;;;;;;4937211;29;20487;-73
2021/04/22 09:35:10;;;;;;;6.67;2.80;;;6.20;91.00;;;;;;4936853;29;20431;-73
2021/04/22 09:37:40;;;;;;;12.03;3.53;;;5.90;90.70;;;;;;4934790;29;20686;-73
2021/04/22 09:40:31;;;;;;;9.60;2.93;;;6.00;92.00;;;;;;4937249;29;20822;-73
2021/04/22 09:43:01;;;;;;;13.03;2.90;;;6.10;91.40;;;;;;4937326;29;20578;-73
2021/04/22 09:45:31;;;;;;;9.20;2.13;;;6.90;93.30;;;;;;4938303;29;20415;-73
2021/04/22 09:47:57;;;;;;;8.17;3.00;;;8.40;89.40;;;;;;4933331;29;20421;-73
2021/04/22 09:50:26;;;;;;;11.83;3.43;;;8.00;85.30;;;;;;4937731;29;20768;-74
2021/04/22 09:52:55;;;;;;;9.60;2.53;;;7.10;86.10;;;;;;4925524;29;20464;-73
2021/04/22 09:55:29;;;;;;;7.70;2.90;;;6.60;88.90;;;;;;4935030;29;20439;-73
2021/04/22 09:57:55;;;;;;;6.90;2.40;;;6.30;88.10;;;;;;4936367;29;20417;-73
2021/04/22 10:00:28;;;;;;;16.30;3.60;;;6.20;89.10;;;;;;4920811;29;20864;-73
2021/04/22 10:02:56;;;;;;;13.07;2.80;;;6.10;89.70;;;;;;4936641;29;20195;-73
2021/04/22 10:05:30;;;;;;;9.50;3.00;;;6.50;91.30;;;;;;4932819;29;20428;-73
2021/04/22 10:08:16;;;;;;;13.23;3.00;;;6.90;91.60;;;;;;4932605;29;20506;-73
2021/04/22 10:10:56;;;;;;;7.77;2.40;;;6.90;90.00;;;;;;4937428;29;21017;-74
2021/04/22 10:13:22;;;;;;;10.20;3.00;;;6.70;90.50;;;;;;4936380;29;20937;-74
2021/04/22 10:15:53;;;;;;;9.23;2.63;;;6.60;91.30;;;;;;4936494;29;20431;-74
2021/04/22 10:18:18;;;;;;;6.57;2.53;;;6.50;90.80;;;;;;4935233;29;20176;-74
2021/04/22 10:20:44;;;;;;;9.83;2.23;;;6.40;90.70;;;;;;4933496;29;20506;-75
2021/04/22 10:23:11;;;;;;;13.77;2.40;;;6.30;90.70;;;;;;4934359;29;20627;-75
2021/04/22 10:25:40;;;;;;;8.60;2.07;;;6.10;89.90;;;;;;4935576;29;20187;-75
2021/04/22 10:28:09;;;;;;;18.70;2.67;;;6.40;91.80;;;;;;4934637;29;20470;-75
2021/04/22 10:30:37;;;;;;;7.77;2.47;;;6.50;90.50;;;;;;4935516;29;20535;-74
2021/04/22 10:33:04;;;;;;;8.80;2.40;;;6.30;88.60;;;;;;4936075;29;20434;-74
2021/04/22 10:35:33;;;;;;;11.27;2.80;;;6.30;89.50;;;;;;4935283;29;20435;-74
2021/04/22 10:38:01;;;;;;;9.33;3.07;;;6.10;88.70;;;;;;4936838;29;20431;-74
2021/04/22 10:40:30;;;;;;;14.10;3.70;;;6.50;92.20;;;;;;4938153;29;20419;-75
2021/04/22 10:42:57;;;;;;;10.73;2.87;;;7.60;94.80;;;;;;4937946;29;20526;-75
2021/04/22 10:45:23;;;;;;;7.83;2.60;;;7.60;87.10;;;;;;4936570;29;20806;-75
2021/04/22 10:47:49;;;;;;;7.50;3.30;;;7.40;85.90;;;;;;4935860;29;20427;-74
2021/04/22 10:50:35;;;;;;;11.03;2.77;;;6.90;85.50;;;;;;4937671;29;20423;-75
2021/04/22 10:53:02;;;;;;;7.60;2.50;;;7.10;89.10;;;;;;4937038;29;20431;-75
2021/04/22 10:55:30;;;;;;;8.93;2.90;;;8.00;91.40;;;;;;4918506;29;20423;-75
2021/04/22 10:57:58;;;;;;;14.63;2.80;;;8.10;84.40;;;;;;4928634;29;20465;-75
2021/04/22 11:00:29;;;;;;;9.30;2.43;;;7.80;85.40;;;;;;4936310;29;20553;-75
2021/04/22 11:02:57;;;;;;;9.70;2.70;;;7.90;83.70;;;;;;4940925;29;20526;-75
2021/04/22 11:05:26;;;;;;;13.83;3.10;;;8.20;84.50;;;;;;4941023;29;20434;-75
2021/04/22 11:08:10;;;;;;;6.37;2.70;;;8.00;84.50;;;;;;4937526;29;20420;-75
2021/04/22 11:10:45;;;;;;;14.77;3.30;;;7.40;83.90;;;;;;4938076;29;20487;-75
2021/04/22 11:13:15;;;;;;;6.23;2.70;;;7.20;88.80;;;;;;4937258;29;20419;-75
2021/04/22 11:16:04;;;;;;;6.80;2.50;;;7.80;86.70;;;;;;4934010;29;20411;-75
2021/04/22 11:18:50;;;;;;;9.13;2.83;;;7.90;85.80;;;;;;4930587;29;20431;-75
2021/04/22 11:21:24;;;;;;;10.50;3.33;;;8.80;89.30;;;;;;4928820;29;20458;-75
2021/04/22 11:23:52;;;;;;;8.57;2.40;;;9.30;82.30;;;;;;4917546;29;20463;-75
2021/04/22 11:26:30;;;;;;;23.73;3.10;;;10.40;81.60;;;;;;4933203;29;20867;-75
2021/04/22 11:29:07;;;;;;;12.90;3.03;;;11.00;78.80;;;;;;4945137;29;20410;-75
2021/04/22 11:31:47;;;;;;;11.47;2.70;;;11.00;79.20;;;;;;4921793;29;20459;-75
2021/04/22 11:34:14;;;;;;;16.03;2.73;;;11.60;78.30;;;;;;4937259;29;20427;-75
2021/04/22 11:36:50;;;;;;;16.07;2.70;;;12.00;81.30;;;;;;4938600;29;20416;-75
2021/04/22 11:39:16;;;;;;;9.57;2.70;;;11.60;79.20;;;;;;4937750;29;20790;-75
2021/04/22 11:41:53;;;;;;;9.23;2.77;;;10.70;74.80;;;;;;4937946;29;20546;-75
2021/04/22 11:44:30;;;;;;;9.63;2.90;;;9.80;80.40;;;;;;4938258;29;20419;-75
2021/04/22 11:46:55;;;;;;;9.70;2.33;;;9.70;80.70;;;;;;4937887;29;20438;-73
2021/04/22 11:49:29;;;;;;;7.00;2.50;;;9.70;80.10;;;;;;4936289;29;20419;-73
2021/04/22 11:51:55;;;;;;;10.33;2.97;;;8.80;78.50;;;;;;4937819;29;20211;-72
2021/04/22 11:54:29;;;;;;;17.17;3.57;;;8.30;79.80;;;;;;4938344;29;20946;-72
2021/04/22 11:56:59;;;;;;;5.70;2.60;;;9.30;83.30;;;;;;4936905;29;20954;-73
2021/04/22 11:59:26;;;;;;;14.00;3.53;;;8.90;79.20;;;;;;4937993;29;20461;-73
2021/04/22 12:02:04;;;;;;;8.47;2.63;;;9.40;86.10;;;;;;4936167;29;20470;-72
2021/04/22 12:04:49;;;;;;;7.70;3.00;;;10.50;82.60;;;;;;4935670;29;20412;-73
2021/04/22 12:07:20;;;;;;;13.77;3.00;;;10.90;76.90;;;;;;4937197;29;20604;-72
2021/04/22 12:09:52;;;;;;;8.60;2.97;;;10.50;77.20;;;;;;4937930;29;20419;-73
2021/04/22 12:12:26;;;;;;;8.47;2.63;;;10.10;78.60;;;;;;4967855;23;21108;-76
2021/04/22 12:14:55;;;;;;;11.10;3.53;;;10.10;79.20;;;;;;4937352;28;20523;-76
2021/04/22 12:17:33;;;;;;;11.30;2.53;;;9.40;79.80;;;;;;4936689;29;20419;-77
2021/04/22 12:20:04;;;;;;;15.43;2.93;;;10.00;79.60;;;;;;4952790;29;20425;-77
2021/04/22 12:22:37;;;;;;;9.90;2.97;;;10.70;77.70;;;;;;4938779;29;20463;-76
2021/04/22 12:25:11;;;;;;;10.27;3.27;;;9.60;77.80;;;;;;4937141;29;20411;-76
2021/04/22 12:27:57;;;;;;;10.13;2.73;;;8.90;80.20;;;;;;4951756;29;20921;-77
2021/04/22 12:30:28;;;;;;;6.53;2.40;;;8.70;80.70;;;;;;4955699;29;20430;-77
2021/04/22 12:33:04;;;;;;;7.73;3.03;;;8.00;80.20;;;;;;4955347;28;20545;-76
2021/04/22 12:35:31;;;;;;;6.93;2.00;;;7.70;81.00;;;;;;4956050;28;20402;-77
2021/04/22 12:38:10;;;;;;;5.00;2.00;;;8.20;82.60;;;;;;4946146;28;20431;-77
2021/04/22 12:40:36;;;;;;;11.63;3.63;;;8.70;82.20;;;;;;4937135;29;20419;-77
2021/04/22 12:43:02;;;;;;;10.60;2.70;;;8.80;82.30;;;;;;4950788;28;20469;-78
2021/04/22 12:45:28;;;;;;;6.07;2.40;;;9.50;80.40;;;;;;4958712;28;20179;-78
2021/04/22 12:47:56;;;;;;;10.07;2.60;;;9.40;78.80;;;;;;4953593;29;20791;-77
2021/04/22 12:50:25;;;;;;;9.77;3.10;;;9.80;78.50;;;;;;4954940;29;20175;-77
2021/04/22 12:53:21;;;;;;;6.20;2.23;;;10.60;76.60;;;;;;4953867;29;20449;-77
2021/04/22 12:55:54;;;;;;;13.07;3.50;;;10.30;75.60;;;;;;4952581;29;20434;-77
2021/04/22 12:58:40;;;;;;;9.43;2.87;;;10.50;77.50;;;;;;4953690;28;20955;-77
2021/04/22 13:01:15;;;;;;;6.47;2.30;;;11.20;79.20;;;;;;4955037;28;20477;-77
2021/04/22 13:03:44;;;;;;;7.77;2.47;;;11.00;75.00;;;;;;4956831;28;20471;-77
2021/04/22 13:06:12;;;;;;;5.70;2.57;;;10.30;73.80;;;;;;4974758;28;20406;-77
2021/04/22 13:08:42;;;;;;;8.70;2.90;;;9.40;75.60;;;;;;4956909;28;20418;-77
2021/04/22 13:11:12;;;;;;;8.20;2.83;;;8.80;78.90;;;;;;4954110;28;20418;-77
2021/04/22 13:13:42;;;;;;;6.00;3.07;;;8.60;81.00;;;;;;4955413;28;20461;-77
2021/04/22 13:16:13;;;;;;;5.63;2.73;;;8.80;79.20;;;;;;4953764;29;20422;-78
2021/04/22 13:18:40;;;;;;;9.87;2.90;;;8.90;81.10;;;;;;4954640;28;20465;-77
2021/04/22 13:21:15;;;;;;;6.00;2.30;;;9.00;79.20;;;;;;4941420;28;20415;-77
2021/04/22 13:23:42;;;;;;;10.80;3.00;;;8.60;80.60;;;;;;4955077;28;20472;-77
2021/04/22 13:26:29;;;;;;;6.90;2.30;;;8.40;80.90;;;;;;4953791;28;20419;-77
2021/04/22 13:29:08;;;;;;;6.23;2.80;;;8.20;81.80;;;;;;4970257;28;20964;-77
2021/04/22 13:31:34;;;;;;;9.70;2.90;;;8.00;79.50;;;;;;4943180;29;20417;-77
2021/04/22 13:34:26;;;;;;;9.07;2.70;;;7.80;82.80;;;;;;4953996;29;20426;-77
2021/04/22 13:36:53;;;;;;;6.13;2.53;;;8.00;81.80;;;;;;4950300;29;20481;-77
2021/04/22 13:39:30;;;;;;;6.20;2.73;;;7.70;81.00;;;;;;4953932;28;20427;-77
2021/04/22 13:41:56;;;;;;;15.03;4.00;;;7.50;81.70;;;;;;4955951;28;20435;-77
2021/04/22 13:44:26;;;;;;;10.07;3.30;;;7.60;81.30;;;;;;4971004;28;20468;-77
2021/04/22 13:46:53;;;;;;;5.97;2.30;;;7.80;83.30;;;;;;4956056;28;20426;-78
2021/04/22 13:49:22;;;;;;;6.70;2.60;;;8.30;83.80;;;;;;4957654;28;20775;-78
2021/04/22 13:51:48;;;;;;;17.83;3.20;;;8.70;81.40;;;;;;4960927;28;20484;-77
2021/04/22 13:54:21;;;;;;;5.83;2.50;;;8.40;80.30;;;;;;4963977;28;20542;-77
2021/04/22 13:56:49;;;;;;;9.10;2.80;;;8.50;80.50;;;;;;4961271;28;20544;-77
2021/04/22 13:59:18;;;;;;;11.90;3.30;;;8.60;80.70;;;;;;4965658;28;20459;-77
2021/04/22 14:01:45;;;;;;;8.90;2.60;;;8.60;80.50;;;;;;4965348;28;20430;-77
2021/04/22 14:04:15;;;;;;;8.20;2.07;;;8.80;80.80;;;;;;4957917;28;20424;-78
2021/04/22 14:06:48;;;;;;;13.40;2.77;;;8.80;78.20;;;;;;4970277;28;20547;-77
2021/04/22 14:09:13;;;;;;;8.03;2.30;;;8.70;78.40;;;;;;4949149;28;20437;-78
2021/04/22 14:11:47;;;;;;;9.10;2.77;;;8.90;77.60;;;;;;4947133;29;20412;-79
2021/04/22 14:14:15;;;;;;;4.73;2.40;;;9.00;80.30;;;;;;4952251;29;20260;-78
2021/04/22 14:16:41;;;;;;;7.10;3.00;;;9.20;76.50;;;;;;4956633;28;20513;-78
2021/04/22 14:19:12;;;;;;;8.73;2.90;;;8.90;77.70;;;;;;4946392;29;20419;-78
2021/04/22 14:21:38;;;;;;;8.43;2.50;;;8.60;81.20;;;;;;4957363;29;20423;-78
2021/04/22 14:24:05;;;;;;;5.97;2.50;;;8.60;79.10;;;;;;4959267;28;20477;-79
2021/04/22 14:26:32;;;;;;;9.43;2.30;;;8.20;81.60;;;;;;4956453;28;20456;-78
2021/04/22 14:28:58;;;;;;;12.10;2.57;;;8.30;80.90;;;;;;4951417;29;20418;-78
2021/04/22 14:31:23;;;;;;;9.40;2.67;;;8.30;84.00;;;;;;4954128;28;20774;-78
2021/04/22 14:33:50;;;;;;;11.93;3.43;;;8.00;83.40;;;;;;4954323;28;20261;-78
2021/04/22 14:36:16;;;;;;;7.70;2.63;;;7.80;83.30;;;;;;4953029;29;20277;-78
2021/04/22 14:38:41;;;;;;;5.70;2.80;;;7.70;84.60;;;;;;4952884;29;20864;-77
2021/04/22 14:41:07;;;;;;;7.97;2.50;;;7.60;85.40;;;;;;4954308;29;20418;-77
2021/04/22 14:43:32;;;;;;;9.93;2.83;;;7.50;85.40;;;;;;4953016;29;20670;-77
2021/04/22 14:45:58;;;;;;;6.53;2.80;;;7.50;85.90;;;;;;4954168;29;20254;-77
2021/04/22 14:48:23;;;;;;;6.77;2.10;;;7.50;86.30;;;;;;4953688;28;20585;-77
2021/04/22 14:50:50;;;;;;;5.33;2.10;;;7.40;86.70;;;;;;4956040;29;20183;-77
2021/04/22 14:53:15;;;;;;;13.97;3.43;;;7.30;86.00;;;;;;4953739;28;20213;-78
2021/04/22 14:55:41;;;;;;;14.97;3.10;;;7.30;86.60;;;;;;4954713;28;20803;-78
2021/04/22 14:58:07;;;;;;;11.30;3.10;;;7.40;86.00;;;;;;4954234;28;20182;-78
2021/04/22 15:00:34;;;;;;;8.23;2.77;;;7.70;87.50;;;;;;4955902;28;20469;-78
2021/04/22 15:02:59;;;;;;;7.87;2.90;;;7.80;86.40;;;;;;4954987;29;20466;-78
2021/04/22 15:05:25;;;;;;;9.80;3.13;;;7.90;87.70;;;;;;4954277;29;20426;-78
2021/04/22 15:07:50;;;;;;;9.53;2.53;;;7.90;86.40;;;;;;4957307;28;20253;-78
2021/04/22 15:10:16;;;;;;;7.93;2.70;;;7.80;86.90;;;;;;4959685;28;20183;-78
2021/04/22 15:12:42;;;;;;;14.90;2.83;;;7.80;86.60;;;;;;4958403;28;20224;-78
2021/04/22 15:15:08;;;;;;;9.50;3.40;;;7.60;84.10;;;;;;4959586;28;20175;-78
2021/04/22 15:17:34;;;;;;;6.33;3.00;;;7.50;85.90;;;;;;4958953;28;20186;-78
2021/04/22 15:20:01;;;;;;;10.20;4.53;;;7.50;87.20;;;;;;4959474;29;20424;-78
2021/04/22 15:22:26;;;;;;;6.87;2.57;;;7.60;87.40;;;;;;4959556;28;20242;-78
2021/04/22 15:24:52;;;;;;;3.63;2.37;;;7.60;86.00;;;;;;4959351;28;20461;-78
2021/04/22 15:27:17;;;;;;;10.80;3.00;;;7.80;87.40;;;;;;4958768;29;20179;-78
2021/04/22 15:29:45;;;;;;;9.97;3.07;;;7.90;87.20;;;;;;4959390;28;20186;-78
2021/04/22 15:32:11;;;;;;;6.80;2.10;;;7.90;87.60;;;;;;4958602;28;20282;-78
2021/04/22 15:34:37;;;;;;;14.00;3.30;;;7.90;86.70;;;;;;4959148;28;20418;-78
2021/04/22 15:37:03;;;;;;;9.13;2.73;;;7.80;87.20;;;;;;4958732;28;20419;-78
2021/04/22 15:39:28;;;;;;;5.83;2.53;;;7.70;86.60;;;;;;4959052;28;20186;-78
2021/04/22 15:41:55;;;;;;;9.27;2.97;;;7.70;86.10;;;;;;4957465;29;20439;-77
2021/04/22 15:44:21;;;;;;;6.50;2.30;;;7.70;87.60;;;;;;4959005;28;20175;-78
2021/04/22 15:46:47;;;;;;;6.80;2.70;;;7.70;86.30;;;;;;4958154;28;20481;-78
2021/04/22 15:49:13;;;;;;;19.10;3.30;;;7.60;88.60;;;;;;4957171;29;20558;-78
2021/04/22 15:51:39;;;;;;;19.90;2.73;;;7.60;89.60;;;;;;4958898;28;20411;-78
2021/04/22 15:54:05;;;;;;;11.63;2.23;;;7.50;86.40;;;;;;4957739;28;20718;-81
2021/04/22 15:56:33;;;;;;;4.50;2.50;;;7.30;86.20;;;;;;4959218;28;20262;-79
2021/04/22 15:58:58;;;;;;;18.70;2.70;;;7.10;85.70;;;;;;4958233;28;20501;-79
2021/04/22 16:01:25;;;;;;;7.37;2.10;;;7.00;88.50;;;;;;4958574;29;20494;-78
2021/04/22 16:03:50;;;;;;;11.60;2.10;;;7.00;88.20;;;;;;4957397;29;20214;-78
2021/04/22 16:06:16;;;;;;;8.90;2.77;;;7.00;85.20;;;;;;4958623;28;20411;-78
2021/04/22 16:08:41;;;;;;;3.90;1.90;;;7.00;87.00;;;;;;4956626;28;20183;-78
2021/04/22 16:11:07;;;;;;;10.77;2.60;;;7.00;85.50;;;;;;4958772;28;20179;-78
2021/04/22 16:13:33;;;;;;;4.70;2.23;;;7.00;86.10;;;;;;4957933;29;20734;-78
2021/04/22 16:15:59;;;;;;;8.00;2.60;;;7.00;87.00;;;;;;4957742;28;20189;-78
2021/04/22 16:18:24;;;;;;;13.83;2.57;;;7.00;86.80;;;;;;4956610;28;20793;-79
2021/04/22 16:20:54;;;;;;;5.67;2.30;;;7.00;86.20;;;;;;4961392;29;20183;-78
2021/04/22 16:23:20;;;;;;;7.70;2.70;;;7.00;87.30;;;;;;4957404;29;20345;-79
2021/04/22 16:25:47;;;;;;;11.50;2.77;;;7.00;87.80;;;;;;4961830;28;20489;-78
2021/04/22 16:28:12;;;;;;;6.07;1.93;;;7.00;87.80;;;;;;4961941;28;20910;-78
2021/04/22 16:30:38;;;;;;;9.30;2.63;;;7.00;88.40;;;;;;4962347;29;20411;-78
2021/04/22 16:33:04;;;;;;;7.60;2.63;;;7.00;87.50;;;;;;4962112;29;20323;-77
2021/04/22 16:35:30;;;;;;;8.13;2.60;;;6.90;87.30;;;;;;4953806;29;20495;-78
2021/04/22 16:37:55;;;;;;;9.83;1.80;;;6.90;88.90;;;;;;4946855;29;20187;-78
2021/04/22 16:40:21;;;;;;;5.03;1.80;;;6.80;87.20;;;;;;4946534;29;20601;-78
2021/04/22 16:42:47;;;;;;;17.27;1.87;;;6.80;85.90;;;;;;4942765;29;20227;-78
2021/04/22 16:45:16;;;;;;;7.20;2.10;;;6.70;86.20;;;;;;4952009;29;20796;-79
2021/04/22 16:47:41;;;;;;;4.90;1.93;;;6.70;84.80;;;;;;4953767;29;21001;-78
2021/04/22 16:50:08;;;;;;;3.00;1.57;;;6.60;86.20;;;;;;4945482;28;20503;-77
2021/04/22 16:52:34;;;;;;;20.70;2.67;;;6.60;86.60;;;;;;4954649;29;20202;-77
2021/04/22 16:55:00;;;;;;;11.83;2.70;;;6.60;86.70;;;;;;4955588;28;20430;-77